sensor_id;sensor_type;location;lat;lon;timestamp;P1;durP1;ratioP1;P2;durP2;ratioP2
43088;SDS011;28709;52.030;5.652;2023-05-19T00:00:14;4.75;;;2.40;;
43088;SDS011;28709;52.030;5.652;2023-05-19T00:02:40;12.05;;;3.05;;
43088;SDS011;28709;52.030;5.652;2023-05-19T00:05:08;7.90;;;2.65;;
43088;SDS011;28709;52.030;5.652;2023-05-19T00:07:34;7.70;;;2.28;;
43088;SDS011;28709;52.030;5.652;2023-05-19T00:10:03;10.35;;;2.65;;
43088;SDS011;28709;52.030;5.652;2023-05-19T00:12:29;10.63;;;3.15;;
43088;SDS011;28709;52.030;5.652;2023-05-19T00:14:55;8.88;;;2.90;;
43088;SDS011;28709;52.030;5.652;2023-05-19T00:17:21;5.70;;;2.38;;
43088;SDS011;28709;52.030;5.652;2023-05-19T00:19:47;7.72;;;2.80;;
43088;SDS011;28709;52.030;5.652;2023-05-19T00:22:14;9.40;;;2.72;;
43088;SDS011;28709;52.030;5.652;2023-05-19T00:24:40;7.53;;;2.78;;
43088;SDS011;28709;52.030;5.652;2023-05-19T00:27:05;5.10;;;2.88;;
43088;SDS011;28709;52.030;5.652;2023-05-19T00:29:31;6.97;;;2.88;;
43088;SDS011;28709;52.030;5.652;2023-05-19T00:31:57;8.00;;;2.60;;
43088;SDS011;28709;52.030;5.652;2023-05-19T00:34:22;5.38;;;2.22;;
43088;SDS011;28709;52.030;5.652;2023-05-19T00:36:48;7.20;;;2.97;;
43088;SDS011;28709;52.030;5.652;2023-05-19T00:39:14;9.07;;;2.88;;
43088;SDS011;28709;52.030;5.652;2023-05-19T00:41:40;9.32;;;2.95;;
43088;SDS011;28709;52.030;5.652;2023-05-19T00:44:06;8.70;;;3.00;;
43088;SDS011;28709;52.030;5.652;2023-05-19T00:46:32;6.68;;;2.83;;
43088;SDS011;28709;52.030;5.652;2023-05-19T00:48:58;6.47;;;2.97;;
43088;SDS011;28709;52.030;5.652;2023-05-19T00:51:25;6.20;;;3.33;;
43088;SDS011;28709;52.030;5.652;2023-05-19T00:53:51;6.70;;;2.72;;
43088;SDS011;28709;52.030;5.652;2023-05-19T00:56:17;9.48;;;2.70;;
43088;SDS011;28709;52.030;5.652;2023-05-19T00:58:44;8.82;;;3.50;;
43088;SDS011;28709;52.030;5.652;2023-05-19T01:01:12;8.07;;;3.17;;
43088;SDS011;28709;52.030;5.652;2023-05-19T01:03:41;8.77;;;3.47;;
43088;SDS011;28709;52.030;5.652;2023-05-19T01:06:08;8.52;;;3.28;;
43088;SDS011;28709;52.030;5.652;2023-05-19T01:08:35;10.23;;;3.30;;
43088;SDS011;28709;52.030;5.652;2023-05-19T01:11:02;6.75;;;3.05;;
43088;SDS011;28709;52.030;5.652;2023-05-19T01:13:31;10.32;;;3.00;;
43088;SDS011;28709;52.030;5.652;2023-05-19T01:19:10;8.57;;;2.90;;
43088;SDS011;28709;52.030;5.652;2023-05-19T01:32:35;9.88;;;3.72;;
43088;SDS011;28709;52.030;5.652;2023-05-19T01:35:05;4.93;;;2.60;;
43088;SDS011;28709;52.030;5.652;2023-05-19T01:37:33;9.00;;;3.35;;
43088;SDS011;28709;52.030;5.652;2023-05-19T01:40:00;4.78;;;2.63;;
43088;SDS011;28709;52.030;5.652;2023-05-19T01:42:26;6.00;;;3.33;;
43088;SDS011;28709;52.030;5.652;2023-05-19T01:44:53;10.65;;;3.35;;
43088;SDS011;28709;52.030;5.652;2023-05-19T01:47:20;5.57;;;2.97;;
43088;SDS011;28709;52.030;5.652;2023-05-19T01:49:46;6.95;;;3.53;;
43088;SDS011;28709;52.030;5.652;2023-05-19T01:52:11;5.43;;;2.60;;
43088;SDS011;28709;52.030;5.652;2023-05-19T01:54:37;8.52;;;3.05;;
43088;SDS011;28709;52.030;5.652;2023-05-19T02:02:22;8.00;;;3.30;;
43088;SDS011;28709;52.030;5.652;2023-05-19T02:05:08;7.07;;;3.38;;
43088;SDS011;28709;52.030;5.652;2023-05-19T02:07:48;9.25;;;3.67;;
43088;SDS011;28709;52.030;5.652;2023-05-19T02:10:22;8.18;;;3.03;;
43088;SDS011;28709;52.030;5.652;2023-05-19T02:15:25;8.73;;;3.85;;
43088;SDS011;28709;52.030;5.652;2023-05-19T02:17:56;6.60;;;3.13;;
43088;SDS011;28709;52.030;5.652;2023-05-19T02:20:24;8.18;;;3.33;;
43088;SDS011;28709;52.030;5.652;2023-05-19T02:22:49;8.35;;;2.97;;
43088;SDS011;28709;52.030;5.652;2023-05-19T02:25:15;6.82;;;3.40;;
43088;SDS011;28709;52.030;5.652;2023-05-19T02:27:41;5.95;;;2.75;;
43088;SDS011;28709;52.030;5.652;2023-05-19T02:30:07;8.60;;;3.00;;
43088;SDS011;28709;52.030;5.652;2023-05-19T02:32:33;8.73;;;3.20;;
43088;SDS011;28709;52.030;5.652;2023-05-19T02:35:00;6.72;;;3.10;;
43088;SDS011;28709;52.030;5.652;2023-05-19T02:37:26;8.82;;;3.63;;
43088;SDS011;28709;52.030;5.652;2023-05-19T02:39:53;3.97;;;2.30;;
43088;SDS011;28709;52.030;5.652;2023-05-19T02:42:19;8.80;;;2.97;;
43088;SDS011;28709;52.030;5.652;2023-05-19T02:44:45;8.90;;;3.13;;
43088;SDS011;28709;52.030;5.652;2023-05-19T02:47:14;7.35;;;3.40;;
43088;SDS011;28709;52.030;5.652;2023-05-19T02:49:40;7.47;;;3.00;;
43088;SDS011;28709;52.030;5.652;2023-05-19T02:52:06;7.88;;;3.65;;
43088;SDS011;28709;52.030;5.652;2023-05-19T02:54:32;8.15;;;4.03;;
43088;SDS011;28709;52.030;5.652;2023-05-19T02:56:58;7.95;;;3.20;;
43088;SDS011;28709;52.030;5.652;2023-05-19T02:59:25;7.43;;;3.13;;
43088;SDS011;28709;52.030;5.652;2023-05-19T03:01:53;5.18;;;3.05;;
43088;SDS011;28709;52.030;5.652;2023-05-19T03:04:20;4.95;;;2.95;;
43088;SDS011;28709;52.030;5.652;2023-05-19T03:06:46;5.35;;;2.97;;
43088;SDS011;28709;52.030;5.652;2023-05-19T03:09:12;7.00;;;3.05;;
43088;SDS011;28709;52.030;5.652;2023-05-19T03:11:38;5.97;;;3.55;;
43088;SDS011;28709;52.030;5.652;2023-05-19T03:14:04;10.80;;;3.33;;
43088;SDS011;28709;52.030;5.652;2023-05-19T03:16:29;7.60;;;3.50;;
43088;SDS011;28709;52.030;5.652;2023-05-19T03:18:55;8.00;;;3.85;;
43088;SDS011;28709;52.030;5.652;2023-05-19T03:21:21;6.05;;;3.28;;
43088;SDS011;28709;52.030;5.652;2023-05-19T03:23:47;12.90;;;3.65;;
43088;SDS011;28709;52.030;5.652;2023-05-19T03:26:12;10.48;;;4.22;;
43088;SDS011;28709;52.030;5.652;2023-05-19T03:28:38;11.63;;;5.28;;
43088;SDS011;28709;52.030;5.652;2023-05-19T03:31:03;9.20;;;3.70;;
43088;SDS011;28709;52.030;5.652;2023-05-19T03:33:29;11.20;;;4.03;;
43088;SDS011;28709;52.030;5.652;2023-05-19T03:35:55;7.68;;;3.75;;
43088;SDS011;28709;52.030;5.652;2023-05-19T03:38:21;10.45;;;4.47;;
43088;SDS011;28709;52.030;5.652;2023-05-19T03:40:47;9.43;;;4.28;;
43088;SDS011;28709;52.030;5.652;2023-05-19T03:43:13;11.15;;;3.58;;
43088;SDS011;28709;52.030;5.652;2023-05-19T03:45:40;8.93;;;3.95;;
43088;SDS011;28709;52.030;5.652;2023-05-19T03:48:06;7.07;;;3.92;;
43088;SDS011;28709;52.030;5.652;2023-05-19T03:50:31;8.70;;;4.78;;
43088;SDS011;28709;52.030;5.652;2023-05-19T03:52:57;6.32;;;3.35;;
43088;SDS011;28709;52.030;5.652;2023-05-19T03:55:23;12.05;;;4.38;;
43088;SDS011;28709;52.030;5.652;2023-05-19T03:57:50;10.98;;;4.45;;
43088;SDS011;28709;52.030;5.652;2023-05-19T04:00:16;11.40;;;3.80;;
43088;SDS011;28709;52.030;5.652;2023-05-19T04:02:42;12.18;;;5.35;;
43088;SDS011;28709;52.030;5.652;2023-05-19T04:05:08;9.98;;;5.30;;
43088;SDS011;28709;52.030;5.652;2023-05-19T04:07:34;6.25;;;3.88;;
43088;SDS011;28709;52.030;5.652;2023-05-19T04:10:02;11.20;;;4.18;;
43088;SDS011;28709;52.030;5.652;2023-05-19T04:12:31;6.95;;;4.22;;
43088;SDS011;28709;52.030;5.652;2023-05-19T04:14:57;7.95;;;4.63;;
43088;SDS011;28709;52.030;5.652;2023-05-19T04:17:23;16.92;;;5.72;;
43088;SDS011;28709;52.030;5.652;2023-05-19T04:19:50;9.02;;;5.05;;
43088;SDS011;28709;52.030;5.652;2023-05-19T04:22:17;8.77;;;4.82;;
43088;SDS011;28709;52.030;5.652;2023-05-19T04:24:42;9.00;;;5.07;;
43088;SDS011;28709;52.030;5.652;2023-05-19T04:27:08;10.77;;;4.75;;
43088;SDS011;28709;52.030;5.652;2023-05-19T04:29:36;9.82;;;4.95;;
43088;SDS011;28709;52.030;5.652;2023-05-19T04:32:03;11.82;;;5.75;;
43088;SDS011;28709;52.030;5.652;2023-05-19T04:34:32;13.25;;;5.93;;
43088;SDS011;28709;52.030;5.652;2023-05-19T04:36:59;13.68;;;5.43;;
43088;SDS011;28709;52.030;5.652;2023-05-19T04:39:25;16.30;;;6.30;;
43088;SDS011;28709;52.030;5.652;2023-05-19T04:41:51;16.30;;;5.35;;
43088;SDS011;28709;52.030;5.652;2023-05-19T04:44:18;7.10;;;3.97;;
43088;SDS011;28709;52.030;5.652;2023-05-19T04:46:44;9.98;;;4.80;;
43088;SDS011;28709;52.030;5.652;2023-05-19T04:49:10;10.18;;;5.30;;
43088;SDS011;28709;52.030;5.652;2023-05-19T04:51:38;12.38;;;5.82;;
43088;SDS011;28709;52.030;5.652;2023-05-19T04:54:08;11.70;;;5.13;;
43088;SDS011;28709;52.030;5.652;2023-05-19T04:56:34;13.05;;;5.38;;
43088;SDS011;28709;52.030;5.652;2023-05-19T04:59:00;8.80;;;4.80;;
43088;SDS011;28709;52.030;5.652;2023-05-19T05:01:26;8.98;;;4.38;;
43088;SDS011;28709;52.030;5.652;2023-05-19T05:03:52;9.63;;;4.13;;
43088;SDS011;28709;52.030;5.652;2023-05-19T05:06:23;10.07;;;5.38;;
43088;SDS011;28709;52.030;5.652;2023-05-19T05:08:48;12.15;;;5.28;;
43088;SDS011;28709;52.030;5.652;2023-05-19T05:11:15;8.23;;;4.38;;
43088;SDS011;28709;52.030;5.652;2023-05-19T05:13:41;8.18;;;4.03;;
43088;SDS011;28709;52.030;5.652;2023-05-19T05:16:07;10.88;;;4.78;;
43088;SDS011;28709;52.030;5.652;2023-05-19T05:18:33;9.80;;;5.15;;
43088;SDS011;28709;52.030;5.652;2023-05-19T05:21:00;10.55;;;4.85;;
43088;SDS011;28709;52.030;5.652;2023-05-19T05:23:27;10.65;;;4.10;;
43088;SDS011;28709;52.030;5.652;2023-05-19T05:25:53;9.90;;;4.60;;
43088;SDS011;28709;52.030;5.652;2023-05-19T05:28:19;8.07;;;4.72;;
43088;SDS011;28709;52.030;5.652;2023-05-19T05:30:45;8.07;;;3.90;;
43088;SDS011;28709;52.030;5.652;2023-05-19T05:33:10;8.90;;;4.05;;
43088;SDS011;28709;52.030;5.652;2023-05-19T05:35:36;9.02;;;4.78;;
43088;SDS011;28709;52.030;5.652;2023-05-19T05:38:02;8.48;;;4.03;;
43088;SDS011;28709;52.030;5.652;2023-05-19T05:40:28;13.65;;;4.75;;
43088;SDS011;28709;52.030;5.652;2023-05-19T05:42:54;12.18;;;4.25;;
43088;SDS011;28709;52.030;5.652;2023-05-19T05:45:24;9.18;;;4.18;;
43088;SDS011;28709;52.030;5.652;2023-05-19T05:47:50;6.00;;;3.70;;
43088;SDS011;28709;52.030;5.652;2023-05-19T05:50:16;7.35;;;4.15;;
43088;SDS011;28709;52.030;5.652;2023-05-19T05:52:46;6.60;;;3.60;;
43088;SDS011;28709;52.030;5.652;2023-05-19T05:55:13;9.23;;;3.72;;
43088;SDS011;28709;52.030;5.652;2023-05-19T05:57:39;10.50;;;4.22;;
43088;SDS011;28709;52.030;5.652;2023-05-19T06:00:07;9.27;;;4.18;;
43088;SDS011;28709;52.030;5.652;2023-05-19T06:02:43;11.15;;;3.97;;
43088;SDS011;28709;52.030;5.652;2023-05-19T06:05:13;13.35;;;4.40;;
43088;SDS011;28709;52.030;5.652;2023-05-19T06:07:39;9.93;;;4.13;;
43088;SDS011;28709;52.030;5.652;2023-05-19T06:10:05;10.18;;;4.53;;
43088;SDS011;28709;52.030;5.652;2023-05-19T06:12:32;9.73;;;3.60;;
43088;SDS011;28709;52.030;5.652;2023-05-19T06:14:58;8.82;;;3.33;;
43088;SDS011;28709;52.030;5.652;2023-05-19T06:17:24;7.82;;;3.25;;
43088;SDS011;28709;52.030;5.652;2023-05-19T06:19:49;5.57;;;2.60;;
43088;SDS011;28709;52.030;5.652;2023-05-19T06:22:15;5.45;;;2.80;;
43088;SDS011;28709;52.030;5.652;2023-05-19T06:24:41;7.25;;;3.08;;
43088;SDS011;28709;52.030;5.652;2023-05-19T06:27:07;5.40;;;2.83;;
43088;SDS011;28709;52.030;5.652;2023-05-19T06:29:32;8.15;;;2.88;;
43088;SDS011;28709;52.030;5.652;2023-05-19T06:31:58;6.03;;;2.60;;
43088;SDS011;28709;52.030;5.652;2023-05-19T06:34:24;7.88;;;2.85;;
43088;SDS011;28709;52.030;5.652;2023-05-19T06:36:49;8.35;;;2.90;;
43088;SDS011;28709;52.030;5.652;2023-05-19T06:39:15;7.40;;;2.50;;
43088;SDS011;28709;52.030;5.652;2023-05-19T06:41:40;11.57;;;2.75;;
43088;SDS011;28709;52.030;5.652;2023-05-19T06:44:06;4.70;;;2.30;;
43088;SDS011;28709;52.030;5.652;2023-05-19T06:46:34;5.25;;;2.55;;
43088;SDS011;28709;52.030;5.652;2023-05-19T06:49:00;8.05;;;2.70;;
43088;SDS011;28709;52.030;5.652;2023-05-19T06:51:26;10.15;;;3.05;;
43088;SDS011;28709;52.030;5.652;2023-05-19T06:53:51;6.05;;;2.17;;
43088;SDS011;28709;52.030;5.652;2023-05-19T06:56:17;6.43;;;2.33;;
43088;SDS011;28709;52.030;5.652;2023-05-19T06:58:43;6.88;;;2.00;;
43088;SDS011;28709;52.030;5.652;2023-05-19T07:01:09;6.47;;;2.00;;
43088;SDS011;28709;52.030;5.652;2023-05-19T07:03:35;6.05;;;1.70;;
43088;SDS011;28709;52.030;5.652;2023-05-19T07:06:01;9.52;;;1.95;;
43088;SDS011;28709;52.030;5.652;2023-05-19T07:08:27;8.73;;;1.80;;
43088;SDS011;28709;52.030;5.652;2023-05-19T07:10:53;4.18;;;1.65;;
43088;SDS011;28709;52.030;5.652;2023-05-19T07:13:20;9.63;;;2.05;;
43088;SDS011;28709;52.030;5.652;2023-05-19T07:15:45;6.18;;;1.63;;
43088;SDS011;28709;52.030;5.652;2023-05-19T07:18:12;5.50;;;1.42;;
43088;SDS011;28709;52.030;5.652;2023-05-19T07:20:38;10.48;;;2.05;;
43088;SDS011;28709;52.030;5.652;2023-05-19T07:23:04;5.72;;;1.65;;
43088;SDS011;28709;52.030;5.652;2023-05-19T07:25:30;7.28;;;1.42;;
43088;SDS011;28709;52.030;5.652;2023-05-19T07:27:57;4.45;;;1.52;;
43088;SDS011;28709;52.030;5.652;2023-05-19T07:30:23;3.55;;;1.40;;
43088;SDS011;28709;52.030;5.652;2023-05-19T07:32:48;7.03;;;1.70;;
43088;SDS011;28709;52.030;5.652;2023-05-19T07:35:14;7.40;;;1.80;;
43088;SDS011;28709;52.030;5.652;2023-05-19T07:37:40;3.97;;;1.83;;
43088;SDS011;28709;52.030;5.652;2023-05-19T07:40:06;9.82;;;2.25;;
43088;SDS011;28709;52.030;5.652;2023-05-19T07:42:32;3.65;;;1.27;;
43088;SDS011;28709;52.030;5.652;2023-05-19T07:44:58;8.15;;;1.73;;
43088;SDS011;28709;52.030;5.652;2023-05-19T07:47:24;3.90;;;1.45;;
43088;SDS011;28709;52.030;5.652;2023-05-19T07:49:49;11.57;;;1.70;;
43088;SDS011;28709;52.030;5.652;2023-05-19T07:52:15;8.50;;;1.30;;
43088;SDS011;28709;52.030;5.652;2023-05-19T07:54:42;4.32;;;1.17;;
43088;SDS011;28709;52.030;5.652;2023-05-19T07:57:08;7.38;;;1.63;;
43088;SDS011;28709;52.030;5.652;2023-05-19T07:59:34;8.65;;;2.25;;
43088;SDS011;28709;52.030;5.652;2023-05-19T08:02:00;5.07;;;1.20;;
43088;SDS011;28709;52.030;5.652;2023-05-19T08:04:25;4.40;;;1.33;;
43088;SDS011;28709;52.030;5.652;2023-05-19T08:06:51;7.28;;;1.50;;
43088;SDS011;28709;52.030;5.652;2023-05-19T08:09:18;9.20;;;2.13;;
43088;SDS011;28709;52.030;5.652;2023-05-19T08:11:44;9.40;;;1.40;;
43088;SDS011;28709;52.030;5.652;2023-05-19T08:14:10;9.98;;;2.08;;
43088;SDS011;28709;52.030;5.652;2023-05-19T08:16:36;5.35;;;1.65;;
43088;SDS011;28709;52.030;5.652;2023-05-19T08:19:05;10.48;;;1.88;;
43088;SDS011;28709;52.030;5.652;2023-05-19T08:21:31;7.45;;;1.92;;
43088;SDS011;28709;52.030;5.652;2023-05-19T08:24:00;7.25;;;1.73;;
43088;SDS011;28709;52.030;5.652;2023-05-19T08:26:26;7.03;;;1.52;;
43088;SDS011;28709;52.030;5.652;2023-05-19T08:28:52;5.57;;;1.55;;
43088;SDS011;28709;52.030;5.652;2023-05-19T08:31:18;5.00;;;1.45;;
43088;SDS011;28709;52.030;5.652;2023-05-19T08:33:44;6.85;;;1.85;;
43088;SDS011;28709;52.030;5.652;2023-05-19T08:36:10;4.35;;;1.55;;
43088;SDS011;28709;52.030;5.652;2023-05-19T08:38:35;7.13;;;1.58;;
43088;SDS011;28709;52.030;5.652;2023-05-19T08:41:01;5.25;;;1.42;;
43088;SDS011;28709;52.030;5.652;2023-05-19T08:43:27;6.35;;;1.58;;
43088;SDS011;28709;52.030;5.652;2023-05-19T08:45:53;6.15;;;1.65;;
43088;SDS011;28709;52.030;5.652;2023-05-19T08:48:19;6.32;;;1.73;;
43088;SDS011;28709;52.030;5.652;2023-05-19T08:51:10;4.97;;;1.40;;
43088;SDS011;28709;52.030;5.652;2023-05-19T08:53:55;5.10;;;1.38;;
43088;SDS011;28709;52.030;5.652;2023-05-19T08:56:26;6.03;;;1.40;;
43088;SDS011;28709;52.030;5.652;2023-05-19T08:58:52;6.40;;;1.30;;
43088;SDS011;28709;52.030;5.652;2023-05-19T09:01:18;4.32;;;1.40;;
43088;SDS011;28709;52.030;5.652;2023-05-19T09:03:46;5.10;;;1.40;;
43088;SDS011;28709;52.030;5.652;2023-05-19T09:06:13;5.53;;;1.52;;
43088;SDS011;28709;52.030;5.652;2023-05-19T09:08:40;6.60;;;1.55;;
43088;SDS011;28709;52.030;5.652;2023-05-19T09:11:06;8.85;;;1.88;;
43088;SDS011;28709;52.030;5.652;2023-05-19T09:13:35;4.63;;;1.17;;
43088;SDS011;28709;52.030;5.652;2023-05-19T09:16:00;2.40;;;0.90;;
43088;SDS011;28709;52.030;5.652;2023-05-19T09:18:27;5.35;;;1.70;;
43088;SDS011;28709;52.030;5.652;2023-05-19T09:20:57;8.05;;;1.63;;
43088;SDS011;28709;52.030;5.652;2023-05-19T09:23:25;7.32;;;1.25;;
43088;SDS011;28709;52.030;5.652;2023-05-19T09:25:53;2.88;;;1.05;;
43088;SDS011;28709;52.030;5.652;2023-05-19T09:30:48;5.03;;;1.65;;
43088;SDS011;28709;52.030;5.652;2023-05-19T09:33:22;8.63;;;2.45;;
43088;SDS011;28709;52.030;5.652;2023-05-19T09:35:47;5.68;;;1.60;;
43088;SDS011;28709;52.030;5.652;2023-05-19T09:38:16;4.90;;;1.42;;
43088;SDS011;28709;52.030;5.652;2023-05-19T09:40:43;4.20;;;1.00;;
43088;SDS011;28709;52.030;5.652;2023-05-19T09:43:09;5.47;;;1.60;;
43088;SDS011;28709;52.030;5.652;2023-05-19T09:45:34;5.43;;;1.30;;
43088;SDS011;28709;52.030;5.652;2023-05-19T09:48:03;3.47;;;1.48;;
43088;SDS011;28709;52.030;5.652;2023-05-19T09:50:30;3.88;;;1.27;;
43088;SDS011;28709;52.030;5.652;2023-05-19T09:52:56;6.80;;;1.50;;
43088;SDS011;28709;52.030;5.652;2023-05-19T09:55:24;4.80;;;1.50;;
43088;SDS011;28709;52.030;5.652;2023-05-19T09:57:53;3.75;;;1.90;;
43088;SDS011;28709;52.030;5.652;2023-05-19T10:00:20;6.32;;;1.63;;
43088;SDS011;28709;52.030;5.652;2023-05-19T10:02:47;3.22;;;1.52;;
43088;SDS011;28709;52.030;5.652;2023-05-19T10:05:15;4.40;;;1.30;;
43088;SDS011;28709;52.030;5.652;2023-05-19T10:07:43;5.47;;;1.55;;
43088;SDS011;28709;52.030;5.652;2023-05-19T10:10:17;6.07;;;1.40;;
43088;SDS011;28709;52.030;5.652;2023-05-19T10:12:45;4.82;;;1.23;;
43088;SDS011;28709;52.030;5.652;2023-05-19T10:15:13;3.08;;;1.10;;
43088;SDS011;28709;52.030;5.652;2023-05-19T10:17:44;8.32;;;1.70;;
43088;SDS011;28709;52.030;5.652;2023-05-19T10:20:11;7.43;;;2.00;;
43088;SDS011;28709;52.030;5.652;2023-05-19T10:22:38;4.85;;;1.42;;
43088;SDS011;28709;52.030;5.652;2023-05-19T10:25:05;4.95;;;1.08;;
43088;SDS011;28709;52.030;5.652;2023-05-19T10:27:33;5.90;;;1.08;;
43088;SDS011;28709;52.030;5.652;2023-05-19T10:30:07;3.30;;;1.42;;
43088;SDS011;28709;52.030;5.652;2023-05-19T10:32:39;10.15;;;1.70;;
43088;SDS011;28709;52.030;5.652;2023-05-19T10:37:54;4.95;;;1.27;;
43088;SDS011;28709;52.030;5.652;2023-05-19T10:40:51;5.28;;;1.63;;
43088;SDS011;28709;52.030;5.652;2023-05-19T10:46:26;2.63;;;1.00;;
43088;SDS011;28709;52.030;5.652;2023-05-19T10:48:53;3.40;;;0.93;;
43088;SDS011;28709;52.030;5.652;2023-05-19T10:51:19;4.35;;;1.33;;
43088;SDS011;28709;52.030;5.652;2023-05-19T10:53:45;4.75;;;1.20;;
43088;SDS011;28709;52.030;5.652;2023-05-19T10:56:11;2.75;;;1.20;;
43088;SDS011;28709;52.030;5.652;2023-05-19T10:58:53;6.72;;;1.40;;
43088;SDS011;28709;52.030;5.652;2023-05-19T11:01:19;3.65;;;1.30;;
43088;SDS011;28709;52.030;5.652;2023-05-19T11:03:52;4.50;;;1.83;;
43088;SDS011;28709;52.030;5.652;2023-05-19T11:09:10;4.57;;;1.30;;
43088;SDS011;28709;52.030;5.652;2023-05-19T11:11:44;4.60;;;1.30;;
43088;SDS011;28709;52.030;5.652;2023-05-19T11:14:19;3.92;;;0.95;;
43088;SDS011;28709;52.030;5.652;2023-05-19T11:16:50;5.90;;;1.25;;
43088;SDS011;28709;52.030;5.652;2023-05-19T11:19:37;3.15;;;1.20;;
43088;SDS011;28709;52.030;5.652;2023-05-19T11:22:09;3.17;;;1.17;;
43088;SDS011;28709;52.030;5.652;2023-05-19T11:24:36;5.45;;;1.50;;
43088;SDS011;28709;52.030;5.652;2023-05-19T11:27:26;3.13;;;1.13;;
43088;SDS011;28709;52.030;5.652;2023-05-19T11:29:55;4.82;;;1.20;;
43088;SDS011;28709;52.030;5.652;2023-05-19T11:32:29;5.70;;;1.48;;
43088;SDS011;28709;52.030;5.652;2023-05-19T11:34:57;6.10;;;1.48;;
43088;SDS011;28709;52.030;5.652;2023-05-19T11:37:23;4.47;;;1.50;;
43088;SDS011;28709;52.030;5.652;2023-05-19T11:39:50;5.70;;;1.42;;
43088;SDS011;28709;52.030;5.652;2023-05-19T11:42:16;6.60;;;1.50;;
43088;SDS011;28709;52.030;5.652;2023-05-19T11:44:43;4.82;;;1.20;;
43088;SDS011;28709;52.030;5.652;2023-05-19T11:47:10;3.03;;;1.05;;
43088;SDS011;28709;52.030;5.652;2023-05-19T11:49:37;4.90;;;1.80;;
43088;SDS011;28709;52.030;5.652;2023-05-19T11:52:03;2.72;;;1.17;;
43088;SDS011;28709;52.030;5.652;2023-05-19T11:54:30;5.38;;;1.85;;
43088;SDS011;28709;52.030;5.652;2023-05-19T11:57:01;4.70;;;1.20;;
43088;SDS011;28709;52.030;5.652;2023-05-19T11:59:28;3.45;;;1.27;;
43088;SDS011;28709;52.030;5.652;2023-05-19T12:01:55;4.38;;;1.30;;
43088;SDS011;28709;52.030;5.652;2023-05-19T12:04:20;6.57;;;1.70;;
43088;SDS011;28709;52.030;5.652;2023-05-19T12:06:47;4.13;;;1.52;;
43088;SDS011;28709;52.030;5.652;2023-05-19T12:09:13;4.13;;;1.42;;
43088;SDS011;28709;52.030;5.652;2023-05-19T12:11:39;3.63;;;1.10;;
43088;SDS011;28709;52.030;5.652;2023-05-19T12:14:05;3.60;;;1.02;;
43088;SDS011;28709;52.030;5.652;2023-05-19T12:16:35;6.20;;;1.80;;
43088;SDS011;28709;52.030;5.652;2023-05-19T12:19:01;2.42;;;1.38;;
43088;SDS011;28709;52.030;5.652;2023-05-19T12:21:30;6.72;;;2.13;;
43088;SDS011;28709;52.030;5.652;2023-05-19T12:23:57;5.40;;;1.75;;
43088;SDS011;28709;52.030;5.652;2023-05-19T12:26:23;5.60;;;1.35;;
43088;SDS011;28709;52.030;5.652;2023-05-19T12:28:49;6.25;;;1.45;;
43088;SDS011;28709;52.030;5.652;2023-05-19T12:31:16;6.72;;;1.70;;
43088;SDS011;28709;52.030;5.652;2023-05-19T12:33:41;2.47;;;1.02;;
43088;SDS011;28709;52.030;5.652;2023-05-19T12:36:08;4.13;;;1.20;;
43088;SDS011;28709;52.030;5.652;2023-05-19T12:38:34;5.10;;;1.80;;
43088;SDS011;28709;52.030;5.652;2023-05-19T12:41:03;5.38;;;1.85;;
43088;SDS011;28709;52.030;5.652;2023-05-19T12:43:31;4.72;;;1.35;;
43088;SDS011;28709;52.030;5.652;2023-05-19T12:45:57;5.75;;;1.55;;
43088;SDS011;28709;52.030;5.652;2023-05-19T12:48:23;6.32;;;1.70;;
43088;SDS011;28709;52.030;5.652;2023-05-19T12:50:50;11.88;;;1.80;;
43088;SDS011;28709;52.030;5.652;2023-05-19T12:53:17;4.55;;;1.60;;
43088;SDS011;28709;52.030;5.652;2023-05-19T12:55:44;4.90;;;1.80;;
43088;SDS011;28709;52.030;5.652;2023-05-19T12:58:10;4.97;;;1.55;;
43088;SDS011;28709;52.030;5.652;2023-05-19T13:00:39;4.25;;;1.67;;
43088;SDS011;28709;52.030;5.652;2023-05-19T13:03:07;6.70;;;1.95;;
43088;SDS011;28709;52.030;5.652;2023-05-19T13:05:40;4.30;;;1.48;;
43088;SDS011;28709;52.030;5.652;2023-05-19T13:08:11;3.47;;;1.15;;
43088;SDS011;28709;52.030;5.652;2023-05-19T13:10:42;4.88;;;1.23;;
43088;SDS011;28709;52.030;5.652;2023-05-19T13:13:10;4.72;;;1.30;;
43088;SDS011;28709;52.030;5.652;2023-05-19T13:15:37;5.45;;;1.30;;
43088;SDS011;28709;52.030;5.652;2023-05-19T13:18:05;4.07;;;1.52;;
43088;SDS011;28709;52.030;5.652;2023-05-19T13:20:32;5.95;;;1.58;;
43088;SDS011;28709;52.030;5.652;2023-05-19T13:22:58;2.88;;;1.33;;
43088;SDS011;28709;52.030;5.652;2023-05-19T13:25:25;4.93;;;1.60;;
43088;SDS011;28709;52.030;5.652;2023-05-19T13:27:51;5.03;;;1.50;;
43088;SDS011;28709;52.030;5.652;2023-05-19T13:30:17;6.38;;;1.60;;
43088;SDS011;28709;52.030;5.652;2023-05-19T13:32:43;6.38;;;1.60;;
43088;SDS011;28709;52.030;5.652;2023-05-19T13:35:11;3.45;;;1.13;;
43088;SDS011;28709;52.030;5.652;2023-05-19T13:37:37;3.40;;;1.73;;
43088;SDS011;28709;52.030;5.652;2023-05-19T13:40:06;4.90;;;1.45;;
43088;SDS011;28709;52.030;5.652;2023-05-19T13:42:33;2.55;;;1.13;;
43088;SDS011;28709;52.030;5.652;2023-05-19T13:44:59;6.15;;;1.60;;
43088;SDS011;28709;52.030;5.652;2023-05-19T13:47:25;3.42;;;1.30;;
43088;SDS011;28709;52.030;5.652;2023-05-19T13:49:51;7.15;;;1.77;;
43088;SDS011;28709;52.030;5.652;2023-05-19T13:52:17;2.92;;;1.15;;
43088;SDS011;28709;52.030;5.652;2023-05-19T13:54:44;4.30;;;1.42;;
43088;SDS011;28709;52.030;5.652;2023-05-19T13:57:10;2.35;;;1.05;;
43088;SDS011;28709;52.030;5.652;2023-05-19T13:59:36;6.50;;;1.30;;
43088;SDS011;28709;52.030;5.652;2023-05-19T14:02:02;5.90;;;1.48;;
43088;SDS011;28709;52.030;5.652;2023-05-19T14:04:28;7.20;;;1.73;;
43088;SDS011;28709;52.030;5.652;2023-05-19T14:06:54;3.72;;;1.45;;
43088;SDS011;28709;52.030;5.652;2023-05-19T14:09:20;8.55;;;1.55;;
43088;SDS011;28709;52.030;5.652;2023-05-19T14:11:45;5.47;;;1.60;;
43088;SDS011;28709;52.030;5.652;2023-05-19T14:14:11;5.78;;;1.80;;
43088;SDS011;28709;52.030;5.652;2023-05-19T14:16:38;5.90;;;1.90;;
43088;SDS011;28709;52.030;5.652;2023-05-19T14:19:07;4.18;;;1.58;;
43088;SDS011;28709;52.030;5.652;2023-05-19T14:21:32;7.60;;;1.85;;
43088;SDS011;28709;52.030;5.652;2023-05-19T14:23:58;3.67;;;1.40;;
43088;SDS011;28709;52.030;5.652;2023-05-19T14:26:25;6.05;;;1.77;;
43088;SDS011;28709;52.030;5.652;2023-05-19T14:28:51;5.07;;;1.58;;
43088;SDS011;28709;52.030;5.652;2023-05-19T14:31:16;5.10;;;1.58;;
43088;SDS011;28709;52.030;5.652;2023-05-19T14:33:42;12.02;;;5.03;;
43088;SDS011;28709;52.030;5.652;2023-05-19T14:36:08;13.65;;;7.78;;
43088;SDS011;28709;52.030;5.652;2023-05-19T14:38:34;9.00;;;4.30;;
43088;SDS011;28709;52.030;5.652;2023-05-19T14:41:00;6.70;;;2.00;;
43088;SDS011;28709;52.030;5.652;2023-05-19T14:43:26;3.65;;;1.42;;
43088;SDS011;28709;52.030;5.652;2023-05-19T14:45:51;13.38;;;6.13;;
43088;SDS011;28709;52.030;5.652;2023-05-19T14:48:17;6.28;;;1.80;;
43088;SDS011;28709;52.030;5.652;2023-05-19T14:50:43;3.10;;;1.35;;
43088;SDS011;28709;52.030;5.652;2023-05-19T14:53:10;6.30;;;1.73;;
43088;SDS011;28709;52.030;5.652;2023-05-19T14:55:35;3.85;;;1.50;;
43088;SDS011;28709;52.030;5.652;2023-05-19T14:58:01;2.72;;;1.35;;
43088;SDS011;28709;52.030;5.652;2023-05-19T15:00:27;5.28;;;1.65;;
43088;SDS011;28709;52.030;5.652;2023-05-19T15:02:53;6.13;;;1.88;;
43088;SDS011;28709;52.030;5.652;2023-05-19T15:05:18;3.42;;;1.67;;
43088;SDS011;28709;52.030;5.652;2023-05-19T15:07:44;5.65;;;1.33;;
43088;SDS011;28709;52.030;5.652;2023-05-19T15:10:10;6.72;;;1.70;;
43088;SDS011;28709;52.030;5.652;2023-05-19T15:12:36;4.40;;;2.03;;
43088;SDS011;28709;52.030;5.652;2023-05-19T15:15:01;4.78;;;1.55;;
43088;SDS011;28709;52.030;5.652;2023-05-19T15:17:27;3.67;;;1.15;;